Time;durP1;ratioP1;P1;durP2;ratioP2;P2;SDS_P1;SDS_P2;PMS_P1;PMS_P2;Temp;Humidity;BMP_temperature;BMP_pressure;BME280_temperature;BME280_humidity;BME280_pressure;Samples;Min_cycle;Max_cycle;Signal;HPM_P1;HPM_P2
2023/05/20 00:01:00;;;;;;;;;;;;;;;;;;5047189;28;4556;-64
2023/05/20 00:03:26;;;;;;;;;;;;;;;;;;5047416;28;4460;-65
2023/05/20 00:05:51;;;;;;;;;;;;;;;;;;5047648;28;1139;-63
2023/05/20 00:08:17;;;;;;;;;;;;;;;;;;5046843;28;4469;-63
2023/05/20 00:10:42;;;;;;;;;;;;;;;;;;5047188;28;5013;-59
2023/05/20 00:13:07;;;;;;;;;;;;;;;;;;5047425;28;4430;-62
2023/05/20 00:15:33;;;;;;;;;;;;;;;;;;5047230;28;4926;-60
2023/05/20 00:17:59;;;;;;;;;;;;;;;;;;5046718;28;4437;-61
2023/05/20 00:20:24;;;;;;;;;;;;;;;;;;5045020;28;1353;-63
2023/05/20 00:22:49;;;;;;;;;;;;;;;;;;5046426;28;4924;-61
2023/05/20 00:25:15;;;;;;;;;;;;;;;;;;5047181;28;4621;-64
2023/05/20 00:27:40;;;;;;;;;;;;;;;;;;5046954;28;4545;-61
2023/05/20 00:30:06;;;;;;;;;;;;;;;;;;5047417;28;5018;-60
2023/05/20 00:32:31;;;;;;;;;;;;;;;;;;5047616;28;1227;-61
2023/05/20 00:34:57;;;;;;;;;;;;;;;;;;5047196;28;4873;-61
2023/05/20 00:37:22;;;;;;;;;;;;;;;;;;5046738;28;4441;-60
2023/05/20 00:39:47;;;;;;;;;;;;;;;;;;5046710;28;4997;-60
2023/05/20 00:42:22;;;;;;;;;;;;;;;;;;5045217;28;5067;-59
2023/05/20 00:44:47;;;;;;;;;;;;;;;;;;5047214;28;1163;-60
2023/05/20 00:47:13;;;;;;;;;;;;;;;;;;5046685;28;4825;-61
2023/05/20 00:49:38;;;;;;;;;;;;;;;;;;5046707;28;5247;-60
2023/05/20 00:52:04;;;;;;;;;;;;;;;;;;5046791;28;4541;-61
2023/05/20 00:54:29;;;;;;;;;;;;;;;;;;5039733;28;4678;-59
2023/05/20 00:56:54;;;;;;;;;;;;;;;;;;5046815;28;4625;-58
2023/05/20 00:59:20;;;;;;;;;;;;;;;;;;5046919;28;1145;-61
2023/05/20 01:01:45;;;;;;;;;;;;;;;;;;5046301;28;4448;-61
2023/05/20 01:04:10;;;;;;;;;;;;;;;;;;5039565;28;4552;-61
2023/05/20 01:06:36;;;;;;;;;;;;;;;;;;5050416;28;4989;-61
2023/05/20 01:09:02;;;;;;;;;;;;;;;;;;5045094;28;4509;-60
2023/05/20 01:11:33;;;;;;;;;;;;;;;;;;5045143;28;1971;-60
2023/05/20 01:14:00;;;;;;;;;;;;;;;;;;5044390;28;4783;-60
2023/05/20 01:16:25;;;;;;;;;;;;;;;;;;5045622;28;4521;-61
2023/05/20 01:18:54;;;;;;;;;;;;;;;;;;5045961;28;4493;-61
2023/05/20 01:21:20;;;;;;;;;;;;;;;;;;5027849;28;4473;-61
2023/05/20 01:23:45;;;;;;;;;;;;;;;;;;5046304;28;1353;-59
2023/05/20 01:26:13;;;;;;;;;;;;;;;;;;5045929;28;4983;-61
2023/05/20 01:28:39;;;;;;;;;;;;;;;;;;5045910;28;4747;-64
2023/05/20 01:31:04;;;;;;;;;;;;;;;;;;5045667;28;4800;-64
2023/05/20 01:33:30;;;;;;;;;;;;;;;;;;5044923;28;5371;-64
2023/05/20 01:35:55;;;;;;;;;;;;;;;;;;5044893;28;4516;-66
2023/05/20 01:38:20;;;;;;;;;;;;;;;;;;5045588;28;1115;-65
2023/05/20 01:40:46;;;;;;;;;;;;;;;;;;5061530;28;4610;-62
2023/05/20 01:43:11;;;;;;;;;;;;;;;;;;5046380;28;4652;-65
2023/05/20 01:45:38;;;;;;;;;;;;;;;;;;5062127;28;4470;-65
2023/05/20 01:48:04;;;;;;;;;;;;;;;;;;5048597;28;4753;-64
2023/05/20 01:50:29;;;;;;;;;;;;;;;;;;5048542;28;1977;-65
2023/05/20 01:52:54;;;;;;;;;;;;;;;;;;5044795;28;4537;-65
2023/05/20 01:55:20;;;;;;;;;;;;;;;;;;5047820;28;4456;-64
2023/05/20 01:57:46;;;;;;;;;;;;;;;;;;5049605;28;4482;-62
2023/05/20 02:00:11;;;;;;;;;;;;;;;;;;5049491;28;5009;-63
2023/05/20 02:02:36;;;;;;;;;;;;;;;;;;5050285;28;1170;-62
2023/05/20 02:05:01;;;;;;;;;;;;;;;;;;5049388;28;4477;-62
2023/05/20 02:07:27;;;;;;;;;;;;;;;;;;5049296;28;4456;-62
2023/05/20 02:09:52;;;;;;;;;;;;;;;;;;5049257;28;4838;-62
2023/05/20 02:12:17;;;;;;;;;;;;;;;;;;5048858;28;5044;-62
2023/05/20 02:14:43;;;;;;;;;;;;;;;;;;5044925;28;1126;-61
2023/05/20 02:17:09;;;;;;;;;;;;;;;;;;5048946;28;5085;-61
2023/05/20 02:19:34;;;;;;;;;;;;;;;;;;5048734;28;4719;-61
2023/05/20 02:21:59;;;;;;;;;;;;;;;;;;5048930;28;4468;-62
2023/05/20 02:24:25;;;;;;;;;;;;;;;;;;5041806;28;4460;-61
2023/05/20 02:26:50;;;;;;;;;;;;;;;;;;5049538;28;1388;-62
2023/05/20 02:29:16;;;;;;;;;;;;;;;;;;5049063;28;4913;-62
2023/05/20 02:31:41;;;;;;;;;;;;;;;;;;5048860;28;5107;-61
2023/05/20 02:34:06;;;;;;;;;;;;;;;;;;5048854;28;4616;-62
2023/05/20 02:36:31;;;;;;;;;;;;;;;;;;5048854;28;5471;-62
2023/05/20 02:38:57;;;;;;;;;;;;;;;;;;5046851;28;5258;-60
2023/05/20 02:41:22;;;;;;;;;;;;;;;;;;5045099;28;1351;-61
2023/05/20 02:43:47;;;;;;;;;;;;;;;;;;5048758;28;4426;-61
2023/05/20 02:46:12;;;;;;;;;;;;;;;;;;5047254;28;5116;-61
2023/05/20 02:48:38;;;;;;;;;;;;;;;;;;5047586;28;5248;-62
2023/05/20 02:51:03;;;;;;;;;;;;;;;;;;5046194;28;4507;-61
2023/05/20 02:53:28;;;;;;;;;;;;;;;;;;5046139;28;1508;-61
2023/05/20 02:55:53;;;;;;;;;;;;;;;;;;5048113;28;4476;-62
2023/05/20 02:58:25;;;;;;;;;;;;;;;;;;5048530;28;4616;-62
2023/05/20 03:00:50;;;;;;;;;;;;;;;;;;5048274;28;5017;-62
2023/05/20 03:03:16;;;;;;;;;;;;;;;;;;5048362;28;4472;-62
2023/05/20 03:05:44;;;;;;;;;;;;;;;;;;5048886;28;1151;-63
2023/05/20 03:08:10;;;;;;;;;;;;;;;;;;5048304;28;5070;-62
2023/05/20 03:10:36;;;;;;;;;;;;;;;;;;5047251;28;4683;-62
2023/05/20 03:13:01;;;;;;;;;;;;;;;;;;5048389;28;4433;-62
2023/05/20 03:15:27;;;;;;;;;;;;;;;;;;5047889;28;4605;-61
2023/05/20 03:17:52;;;;;;;;;;;;;;;;;;5048588;28;1110;-61
2023/05/20 03:20:17;;;;;;;;;;;;;;;;;;5048033;28;4612;-61
2023/05/20 03:22:42;;;;;;;;;;;;;;;;;;5074651;28;4995;-62
2023/05/20 03:25:08;;;;;;;;;;;;;;;;;;5045887;28;4459;-62
2023/05/20 03:27:35;;;;;;;;;;;;;;;;;;5047363;28;4764;-62
2023/05/20 03:30:01;;;;;;;;;;;;;;;;;;5047639;28;4488;-62
2023/05/20 03:32:26;;;;;;;;;;;;;;;;;;5047955;28;1187;-62
2023/05/20 03:34:53;;;;;;;;;;;;;;;;;;5047515;28;4456;-62
2023/05/20 03:37:18;;;;;;;;;;;;;;;;;;5043830;28;4432;-61
2023/05/20 03:39:43;;;;;;;;;;;;;;;;;;5047714;28;4450;-62
2023/05/20 03:42:09;;;;;;;;;;;;;;;;;;5045444;28;4643;-62
2023/05/20 03:44:34;;;;;;;;;;;;;;;;;;5047778;28;1905;-62
2023/05/20 03:47:00;;;;;;;;;;;;;;;;;;5046590;28;4792;-61
2023/05/20 03:49:25;;;;;;;;;;;;;;;;;;5047051;28;4965;-63
2023/05/20 03:51:50;;;;;;;;;;;;;;;;;;5076804;28;4522;-62
2023/05/20 03:54:16;;;;;;;;;;;;;;;;;;5042007;28;4497;-62
2023/05/20 03:56:41;;;;;;;;;;;;;;;;;;5047727;28;1172;-62
2023/05/20 03:59:06;;;;;;;;;;;;;;;;;;5046995;28;4604;-62
2023/05/20 04:01:32;;;;;;;;;;;;;;;;;;5046811;28;4449;-63
2023/05/20 04:03:58;;;;;;;;;;;;;;;;;;5046147;28;4638;-63
2023/05/20 04:06:23;;;;;;;;;;;;;;;;;;5042518;28;4936;-63
2023/05/20 04:08:49;;;;;;;;;;;;;;;;;;5047439;28;1190;-63
2023/05/20 04:11:14;;;;;;;;;;;;;;;;;;5046923;28;4405;-63
2023/05/20 04:13:39;;;;;;;;;;;;;;;;;;5046710;28;4900;-62
2023/05/20 04:16:04;;;;;;;;;;;;;;;;;;5046857;28;4655;-61
2023/05/20 04:18:30;;;;;;;;;;;;;;;;;;5046046;28;4798;-61
2023/05/20 04:20:55;;;;;;;;;;;;;;;;;;5046676;28;4485;-60
2023/05/20 04:23:21;;;;;;;;;;;;;;;;;;5040734;28;1515;-63
2023/05/20 04:25:47;;;;;;;;;;;;;;;;;;5046440;28;4503;-62
2023/05/20 04:28:15;;;;;;;;;;;;;;;;;;5046424;28;4703;-62
2023/05/20 04:30:41;;;;;;;;;;;;;;;;;;5046417;28;4504;-62
2023/05/20 04:33:06;;;;;;;;;;;;;;;;;;5046016;28;5006;-63
2023/05/20 04:35:33;;;;;;;;;;;;;;;;;;5046936;28;1020;-63
2023/05/20 04:37:59;;;;;;;;;;;;;;;;;;5046569;28;4980;-65
2023/05/20 04:40:26;;;;;;;;;;;;;;;;;;5043123;28;4725;-60
2023/05/20 04:42:51;;;;;;;;;;;;;;;;;;5046430;28;5037;-61
2023/05/20 04:45:17;;;;;;;;;;;;;;;;;;5046121;28;4684;-61
2023/05/20 04:47:43;;;;;;;;;;;;;;;;;;5046876;28;4665;-61
2023/05/20 04:50:12;;;;;;;;;;;;;;;;;;5046345;28;4412;-61
2023/05/20 04:52:38;;;;;;;;;;;;;;;;;;5043437;28;4963;-62
2023/05/20 04:55:03;;;;;;;;;;;;;;;;;;5042161;28;4450;-61
2023/05/20 04:57:29;;;;;;;;;;;;;;;;;;5046059;28;4703;-61
2023/05/20 04:59:57;;;;;;;;;;;;;;;;;;5046566;28;1221;-61
2023/05/20 05:02:23;;;;;;;;;;;;;;;;;;5047106;28;4420;-60
2023/05/20 05:04:48;;;;;;;;;;;;;;;;;;5046589;28;4427;-60
2023/05/20 05:07:13;;;;;;;;;;;;;;;;;;5044972;28;4619;-60
2023/05/20 05:09:38;;;;;;;;;;;;;;;;;;5046444;28;5114;-60
2023/05/20 05:12:04;;;;;;;;;;;;;;;;;;5044474;28;4477;-61
2023/05/20 05:14:29;;;;;;;;;;;;;;;;;;5046515;28;2221;-60
2023/05/20 05:16:54;;;;;;;;;;;;;;;;;;5049789;28;4521;-60
2023/05/20 05:19:20;;;;;;;;;;;;;;;;;;5049601;28;5258;-63
2023/05/20 05:21:46;;;;;;;;;;;;;;;;;;5049976;28;4523;-62
2023/05/20 05:24:12;;;;;;;;;;;;;;;;;;5043972;28;5062;-64
2023/05/20 05:26:37;;;;;;;;;;;;;;;;;;5050066;28;1211;-62
2023/05/20 05:29:02;;;;;;;;;;;;;;;;;;5047704;28;4988;-62
2023/05/20 05:31:27;;;;;;;;;;;;;;;;;;5048886;28;4673;-63
2023/05/20 05:33:52;;;;;;;;;;;;;;;;;;5045939;28;4441;-62
2023/05/20 05:36:18;;;;;;;;;;;;;;;;;;5046706;28;5099;-60
2023/05/20 05:38:43;;;;;;;;;;;;;;;;;;5047928;28;3319;-64
2023/05/20 05:41:08;;;;;;;;;;;;;;;;;;5046831;28;4659;-64
2023/05/20 05:43:33;;;;;;;;;;;;;;;;;;5079165;28;4620;-63
2023/05/20 05:46:00;;;;;;;;;;;;;;;;;;5041087;28;5082;-63
2023/05/20 05:48:25;;;;;;;;;;;;;;;;;;5049022;28;4665;-62
2023/05/20 05:50:50;;;;;;;;;;;;;;;;;;5049613;28;1906;-64
2023/05/20 05:53:16;;;;;;;;;;;;;;;;;;5044726;28;4709;-64
2023/05/20 05:55:41;;;;;;;;;;;;;;;;;;5046549;28;4841;-64
2023/05/20 05:58:06;;;;;;;;;;;;;;;;;;5048662;28;5177;-67
2023/05/20 06:00:31;;;;;;;;;;;;;;;;;;5047533;28;5292;-64
2023/05/20 06:02:57;;;;;;;;;;;;;;;;;;5045381;28;4619;-64
2023/05/20 06:05:22;;;;;;;;;;;;;;;;;;5048293;28;3227;-64
2023/05/20 06:07:47;;;;;;;;;;;;;;;;;;5062787;28;4585;-60
2023/05/20 06:10:12;;;;;;;;;;;;;;;;;;5048445;28;4668;-62
2023/05/20 06:12:38;;;;;;;;;;;;;;;;;;5045169;28;5002;-63
2023/05/20 06:15:03;;;;;;;;;;;;;;;;;;5047226;28;5101;-65
2023/05/20 06:17:28;;;;;;;;;;;;;;;;;;5047053;28;3403;-61
2023/05/20 06:19:54;;;;;;;;;;;;;;;;;;5041863;28;4707;-59
2023/05/20 06:22:19;;;;;;;;;;;;;;;;;;5052475;28;4643;-60
2023/05/20 06:24:44;;;;;;;;;;;;;;;;;;5045124;28;4858;-61
2023/05/20 06:27:10;;;;;;;;;;;;;;;;;;5050618;28;4474;-61
2023/05/20 06:29:35;;;;;;;;;;;;;;;;;;5047879;28;3182;-61
2023/05/20 06:32:00;;;;;;;;;;;;;;;;;;5046926;28;4657;-61
2023/05/20 06:34:25;;;;;;;;;;;;;;;;;;5047510;28;4682;-62
2023/05/20 06:36:51;;;;;;;;;;;;;;;;;;5048699;28;5569;-60
2023/05/20 06:39:17;;;;;;;;;;;;;;;;;;5047351;28;5015;-61
2023/05/20 06:41:43;;;;;;;;;;;;;;;;;;5050768;28;3280;-61
2023/05/20 06:44:08;;;;;;;;;;;;;;;;;;5045547;28;5003;-61
2023/05/20 06:46:33;;;;;;;;;;;;;;;;;;5049733;28;4522;-61
2023/05/20 06:48:58;;;;;;;;;;;;;;;;;;5046918;28;4609;-61
2023/05/20 06:51:24;;;;;;;;;;;;;;;;;;5050127;28;4554;-62
2023/05/20 06:53:49;;;;;;;;;;;;;;;;;;5044375;28;2941;-61
2023/05/20 06:56:14;;;;;;;;;;;;;;;;;;5054119;28;4618;-61
2023/05/20 06:58:39;;;;;;;;;;;;;;;;;;5044001;28;4623;-61
2023/05/20 07:01:05;;;;;;;;;;;;;;;;;;5046483;28;4651;-61
2023/05/20 07:03:30;;;;;;;;;;;;;;;;;;5050461;28;5007;-61
2023/05/20 07:05:56;;;;;;;;;;;;;;;;;;5046447;28;4665;-57
2023/05/20 07:08:21;;;;;;;;;;;;;;;;;;5048513;28;1142;-61
2023/05/20 07:10:46;;;;;;;;;;;;;;;;;;5044681;28;5017;-61
2023/05/20 07:13:11;;;;;;;;;;;;;;;;;;5047660;28;4913;-59
2023/05/20 07:15:37;;;;;;;;;;;;;;;;;;5045598;28;5014;-61
2023/05/20 07:18:02;;;;;;;;;;;;;;;;;;5045693;28;4647;-58
2023/05/20 07:20:27;;;;;;;;;;;;;;;;;;5033310;28;4679;-59
2023/05/20 07:22:52;;;;;;;;;;;;;;;;;;5041724;28;4750;-60
2023/05/20 07:25:18;;;;;;;;;;;;;;;;;;5042062;28;5287;-60
2023/05/20 07:27:43;;;;;;;;;;;;;;;;;;5045446;28;4700;-57
2023/05/20 07:30:08;;;;;;;;;;;;;;;;;;5042690;28;4702;-61
2023/05/20 07:32:33;;;;;;;;;;;;;;;;;;5044093;28;3176;-62
2023/05/20 07:34:59;;;;;;;;;;;;;;;;;;5037740;28;4756;-61
2023/05/20 07:37:24;;;;;;;;;;;;;;;;;;5044490;28;4611;-61
2023/05/20 07:39:49;;;;;;;;;;;;;;;;;;5044090;28;4520;-62
2023/05/20 07:42:15;;;;;;;;;;;;;;;;;;5041664;28;5047;-63
2023/05/20 07:44:40;;;;;;;;;;;;;;;;;;5041455;28;3273;-65
2023/05/20 07:47:05;;;;;;;;;;;;;;;;;;5040192;28;4951;-65
2023/05/20 07:49:30;;;;;;;;;;;;;;;;;;5042386;28;5069;-64
2023/05/20 07:51:56;;;;;;;;;;;;;;;;;;5042958;28;5242;-62
2023/05/20 07:54:21;;;;;;;;;;;;;;;;;;5044213;28;4812;-63
2023/05/20 07:56:47;;;;;;;;;;;;;;;;;;5045940;28;1587;-63
2023/05/20 07:59:12;;;;;;;;;;;;;;;;;;5057661;28;4446;-63
2023/05/20 08:01:40;;;;;;;;;;;;;;;;;;5049397;28;4691;-64
2023/05/20 08:04:06;;;;;;;;;;;;;;;;;;5049158;28;4654;-64
2023/05/20 08:06:31;;;;;;;;;;;;;;;;;;5043420;28;4662;-62
2023/05/20 08:08:56;;;;;;;;;;;;;;;;;;5045206;28;4498;-62
2023/05/20 08:11:22;;;;;;;;;;;;;;;;;;5050752;28;3323;-61
2023/05/20 08:13:47;;;;;;;;;;;;;;;;;;5050801;28;4528;-62
2023/05/20 08:16:12;;;;;;;;;;;;;;;;;;5053316;28;4705;-60
2023/05/20 08:18:38;;;;;;;;;;;;;;;;;;5052640;28;4694;-60
2023/05/20 08:21:09;;;;;;;;;;;;;;;;;;5046562;28;4588;-61
2023/05/20 08:23:34;;;;;;;;;;;;;;;;;;5044141;28;3501;-61
2023/05/20 08:26:03;;;;;;;;;;;;;;;;;;5050046;28;4594;-59
2023/05/20 08:28:28;;;;;;;;;;;;;;;;;;5042650;28;6128;-61
2023/05/20 08:30:54;;;;;;;;;;;;;;;;;;5041340;28;5387;-61
2023/05/20 08:33:20;;;;;;;;;;;;;;;;;;5058717;28;5355;-59
2023/05/20 08:35:46;;;;;;;;;;;;;;;;;;5046760;28;5003;-60
2023/05/20 08:38:11;;;;;;;;;;;;;;;;;;5038874;28;6428;-62
2023/05/20 08:40:36;;;;;;;;;;;;;;;;;;5043191;28;5278;-61
2023/05/20 08:43:02;;;;;;;;;;;;;;;;;;5044504;28;5557;-61
2023/05/20 08:45:27;;;;;;;;;;;;;;;;;;5049052;28;5297;-65
2023/05/20 08:47:52;;;;;;;;;;;;;;;;;;5041321;28;4593;-62
2023/05/20 08:50:18;;;;;;;;;;;;;;;;;;5056458;28;4563;-60
2023/05/20 08:52:44;;;;;;;;;;;;;;;;;;5051681;28;4737;-61
2023/05/20 08:55:11;;;;;;;;;;;;;;;;;;5056405;28;5258;-62
2023/05/20 08:57:36;;;;;;;;;;;;;;;;;;5047008;28;1858;-63
2023/05/20 09:00:08;;;;;;;;;;;;;;;;;;5046633;28;1917;-59
2023/05/20 09:02:36;;;;;;;;;;;;;;;;;;5046610;28;1632;-58
2023/05/20 09:05:01;;;;;;;;;;;;;;;;;;5047709;28;1633;-58
2023/05/20 09:07:27;;;;;;;;;;;;;;;;;;5044587;28;6354;-58
2023/05/20 09:09:52;;;;;;;;;;;;;;;;;;5049404;28;5477;-58
2023/05/20 09:12:19;;;;;;;;;;;;;;;;;;5055091;28;1898;-58
2023/05/20 09:14:44;;;;;;;;;;;;;;;;;;5045712;28;1917;-57
2023/05/20 09:17:09;;;;;;;;;;;;;;;;;;5045324;28;2934;-59
2023/05/20 09:19:35;;;;;;;;;;;;;;;;;;5051031;28;7023;-57
2023/05/20 09:22:00;;;;;;;;;;;;;;;;;;5043573;28;5337;-59
2023/05/20 09:24:25;;;;;;;;;;;;;;;;;;5047621;28;6344;-58
2023/05/20 09:26:51;;;;;;;;;;;;;;;;;;5042269;28;5493;-63
2023/05/20 09:29:18;;;;;;;;;;;;;;;;;;5047894;28;5546;-61
2023/05/20 09:31:43;;;;;;;;;;;;;;;;;;5045268;28;5206;-61
2023/05/20 09:34:08;;;;;;;;;;;;;;;;;;5044168;28;4660;-61
2023/05/20 09:36:34;;;;;;;;;;;;;;;;;;5037918;28;4524;-61
2023/05/20 09:39:03;;;;;;;;;;;;;;;;;;5044080;28;4689;-62
2023/05/20 09:41:53;;;;;;;;;;;;;;;;;;5053687;28;5254;-60
2023/05/20 09:44:19;;;;;;;;;;;;;;;;;;5044680;28;4525;-62
2023/05/20 09:46:44;;;;;;;;;;;;;;;;;;5053556;28;1333;-59
2023/05/20 09:49:10;;;;;;;;;;;;;;;;;;5059831;28;4641;-60
2023/05/20 09:51:35;;;;;;;;;;;;;;;;;;5042149;28;4854;-59
2023/05/20 09:54:02;;;;;;;;;;;;;;;;;;5061351;28;5068;-63
2023/05/20 09:56:27;;;;;;;;;;;;;;;;;;5051855;28;4655;-61
2023/05/20 09:58:57;;;;;;;;;;;;;;;;;;5059189;28;5348;-60
2023/05/20 10:01:22;;;;;;;;;;;;;;;;;;5051799;28;4593;-61
2023/05/20 10:03:47;;;;;;;;;;;;;;;;;;5045431;28;4923;-60
2023/05/20 10:06:28;;;;;;;;;;;;;;;;;;5048961;28;4674;-57
2023/05/20 10:08:56;;;;;;;;;;;;;;;;;;5040225;28;4725;-60
2023/05/20 10:11:24;;;;;;;;;;;;;;;;;;5054670;28;5058;-61
2023/05/20 10:13:55;;;;;;;;;;;;;;;;;;5048343;28;1196;-59
2023/05/20 10:16:36;;;;;;;;;;;;;;;;;;5047285;28;4443;-60
2023/05/20 10:19:08;;;;;;;;;;;;;;;;;;5044963;28;5055;-61
2023/05/20 10:21:33;;;;;;;;;;;;;;;;;;5049444;28;4530;-59
2023/05/20 10:24:04;;;;;;;;;;;;;;;;;;5038208;28;5137;-59
2023/05/20 10:26:37;;;;;;;;;;;;;;;;;;5045923;28;4534;-62
2023/05/20 10:29:13;;;;;;;;;;;;;;;;;;5043445;28;3549;-57
2023/05/20 10:31:43;;;;;;;;;;;;;;;;;;5045701;28;5135;-56
2023/05/20 10:34:13;;;;;;;;;;;;;;;;;;5047268;28;4675;-56
2023/05/20 10:36:38;;;;;;;;;;;;;;;;;;5045612;28;4665;-57
2023/05/20 10:39:03;;;;;;;;;;;;;;;;;;5060695;28;5189;-56
2023/05/20 10:41:29;;;;;;;;;;;;;;;;;;5050379;28;4532;-57
2023/05/20 10:44:04;;;;;;;;;;;;;;;;;;5050573;28;3358;-52
2023/05/20 10:46:30;;;;;;;;;;;;;;;;;;5041136;28;5131;-50
2023/05/20 10:48:56;;;;;;;;;;;;;;;;;;5047562;28;4514;-53
2023/05/20 10:51:22;;;;;;;;;;;;;;;;;;5049839;28;5123;-52
2023/05/20 10:53:47;;;;;;;;;;;;;;;;;;5060770;28;4557;-56
2023/05/20 10:56:20;;;;;;;;;;;;;;;;;;5043024;28;5099;-56
2023/05/20 10:58:45;;;;;;;;;;;;;;;;;;5044255;28;3008;-55
2023/05/20 11:01:10;;;;;;;;;;;;;;;;;;5052464;28;5012;-56
2023/05/20 11:03:35;;;;;;;;;;;;;;;;;;5046306;28;4454;-55
2023/05/20 11:06:01;;;;;;;;;;;;;;;;;;5041049;28;4565;-54
2023/05/20 11:08:27;;;;;;;;;;;;;;;;;;5046534;28;5025;-53
2023/05/20 11:10:54;;;;;;;;;;;;;;;;;;5046075;28;3130;-56
2023/05/20 11:13:20;;;;;;;;;;;;;;;;;;5040997;28;4439;-54
2023/05/20 11:15:45;;;;;;;;;;;;;;;;;;5047192;28;5149;-51
2023/05/20 11:18:11;;;;;;;;;;;;;;;;;;5045352;28;4456;-56
2023/05/20 11:20:37;;;;;;;;;;;;;;;;;;5074837;28;4554;-56
2023/05/20 11:23:04;;;;;;;;;;;;;;;;;;5047038;28;3348;-58
2023/05/20 11:25:29;;;;;;;;;;;;;;;;;;5047637;28;4931;-57
2023/05/20 11:27:55;;;;;;;;;;;;;;;;;;5046522;28;4642;-57
2023/05/20 11:30:20;;;;;;;;;;;;;;;;;;5046912;28;4648;-57
2023/05/20 11:32:58;;;;;;;;;;;;;;;;;;5061244;28;5103;-57
2023/05/20 11:35:24;;;;;;;;;;;;;;;;;;5045291;28;4488;-56
2023/05/20 11:37:53;;;;;;;;;;;;;;;;;;5046928;28;1167;-58
2023/05/20 11:40:22;;;;;;;;;;;;;;;;;;5046798;28;4606;-58
2023/05/20 11:42:47;;;;;;;;;;;;;;;;;;5042539;28;5464;-57
2023/05/20 11:45:13;;;;;;;;;;;;;;;;;;5046486;28;4947;-57
2023/05/20 11:47:38;;;;;;;;;;;;;;;;;;5046637;28;4458;-57
2023/05/20 11:50:04;;;;;;;;;;;;;;;;;;5045060;28;4624;-56
2023/05/20 11:52:29;;;;;;;;;;;;;;;;;;5046631;28;1985;-57
2023/05/20 11:54:54;;;;;;;;;;;;;;;;;;5044049;28;4497;-58
2023/05/20 11:57:20;;;;;;;;;;;;;;;;;;5046693;28;5055;-57
2023/05/20 11:59:45;;;;;;;;;;;;;;;;;;5046357;28;4597;-57
2023/05/20 12:02:11;;;;;;;;;;;;;;;;;;5044413;28;5183;-58
2023/05/20 12:04:36;;;;;;;;;;;;;;;;;;5046856;28;1188;-58
2023/05/20 12:07:02;;;;;;;;;;;;;;;;;;5046001;28;4581;-57
2023/05/20 12:09:28;;;;;;;;;;;;;;;;;;5045740;28;4654;-57
2023/05/20 12:11:55;;;;;;;;;;;;;;;;;;5046311;28;4633;-57
2023/05/20 12:14:20;;;;;;;;;;;;;;;;;;5044469;28;4469;-58
2023/05/20 12:16:45;;;;;;;;;;;;;;;;;;5046680;28;1067;-58
2023/05/20 12:19:11;;;;;;;;;;;;;;;;;;5045876;28;4793;-57
2023/05/20 12:21:36;;;;;;;;;;;;;;;;;;5043430;28;4489;-55
2023/05/20 12:24:04;;;;;;;;;;;;;;;;;;5041926;28;4626;-57
2023/05/20 12:26:30;;;;;;;;;;;;;;;;;;5042748;28;4460;-57
2023/05/20 12:28:55;;;;;;;;;;;;;;;;;;5041289;28;1283;-57
2023/05/20 12:31:20;;;;;;;;;;;;;;;;;;5045460;28;5219;-57
2023/05/20 12:33:45;;;;;;;;;;;;;;;;;;5044930;28;4404;-57
2023/05/20 12:36:11;;;;;;;;;;;;;;;;;;5045995;28;4525;-57
2023/05/20 12:38:37;;;;;;;;;;;;;;;;;;5046035;28;4453;-56
2023/05/20 12:41:02;;;;;;;;;;;;;;;;;;5045213;28;1225;-57
2023/05/20 12:43:27;;;;;;;;;;;;;;;;;;5045569;28;4994;-57
2023/05/20 12:45:53;;;;;;;;;;;;;;;;;;5043367;28;5837;-57
2023/05/20 12:48:18;;;;;;;;;;;;;;;;;;5043413;28;5103;-57
2023/05/20 12:50:43;;;;;;;;;;;;;;;;;;5040592;28;5195;-58
2023/05/20 12:53:08;;;;;;;;;;;;;;;;;;5046375;28;4807;-57
2023/05/20 12:55:33;;;;;;;;;;;;;;;;;;5046076;28;3181;-58
2023/05/20 12:57:59;;;;;;;;;;;;;;;;;;5050100;28;4628;-58
2023/05/20 13:00:24;;;;;;;;;;;;;;;;;;5046155;28;4587;-58
2023/05/20 13:02:51;;;;;;;;;;;;;;;;;;5044004;28;5098;-59
2023/05/20 13:05:16;;;;;;;;;;;;;;;;;;5046251;28;4844;-59
2023/05/20 13:07:41;;;;;;;;;;;;;;;;;;5046402;28;1217;-58
2023/05/20 13:10:07;;;;;;;;;;;;;;;;;;5045130;28;4922;-59
2023/05/20 13:12:33;;;;;;;;;;;;;;;;;;5045830;28;4470;-58
2023/05/20 13:14:58;;;;;;;;;;;;;;;;;;5041244;28;5018;-59
2023/05/20 13:17:23;;;;;;;;;;;;;;;;;;5045659;28;4441;-58
2023/05/20 13:19:49;;;;;;;;;;;;;;;;;;5046177;28;2126;-59
2023/05/20 13:22:14;;;;;;;;;;;;;;;;;;5045300;28;4631;-58
2023/05/20 13:24:39;;;;;;;;;;;;;;;;;;5040645;28;4676;-58
2023/05/20 13:27:05;;;;;;;;;;;;;;;;;;5045036;28;4618;-58
2023/05/20 13:29:30;;;;;;;;;;;;;;;;;;5045375;28;4469;-58
2023/05/20 13:31:55;;;;;;;;;;;;;;;;;;5046175;28;5060;-58
2023/05/20 13:34:21;;;;;;;;;;;;;;;;;;5046306;28;4392;-58
2023/05/20 13:36:46;;;;;;;;;;;;;;;;;;5047881;28;4641;-58
2023/05/20 13:39:12;;;;;;;;;;;;;;;;;;5047734;28;5032;-58
2023/05/20 13:41:37;;;;;;;;;;;;;;;;;;5049439;28;4503;-58
2023/05/20 13:44:03;;;;;;;;;;;;;;;;;;5050113;28;1286;-58
2023/05/20 13:46:28;;;;;;;;;;;;;;;;;;5050113;28;5009;-58
2023/05/20 13:48:54;;;;;;;;;;;;;;;;;;5049167;28;4930;-58
2023/05/20 13:51:19;;;;;;;;;;;;;;;;;;5047704;28;4688;-57
2023/05/20 13:53:44;;;;;;;;;;;;;;;;;;5048638;28;4460;-58
2023/05/20 13:56:10;;;;;;;;;;;;;;;;;;5042416;28;4968;-58
2023/05/20 13:58:35;;;;;;;;;;;;;;;;;;5047983;28;1568;-58
2023/05/20 14:01:02;;;;;;;;;;;;;;;;;;5048952;28;4460;-58
2023/05/20 14:03:27;;;;;;;;;;;;;;;;;;5049109;28;4620;-58
2023/05/20 14:05:53;;;;;;;;;;;;;;;;;;5048900;28;4724;-59
2023/05/20 14:08:18;;;;;;;;;;;;;;;;;;5040158;28;4587;-58
2023/05/20 14:10:44;;;;;;;;;;;;;;;;;;5045412;28;1901;-59
2023/05/20 14:13:09;;;;;;;;;;;;;;;;;;5048616;28;4472;-58
2023/05/20 14:15:35;;;;;;;;;;;;;;;;;;5049003;28;4626;-59
2023/05/20 14:18:00;;;;;;;;;;;;;;;;;;5048680;28;4484;-58
2023/05/20 14:20:25;;;;;;;;;;;;;;;;;;5047227;28;4748;-58
2023/05/20 14:22:51;;;;;;;;;;;;;;;;;;5049386;28;1090;-58
2023/05/20 14:25:16;;;;;;;;;;;;;;;;;;5040843;28;4491;-59
2023/05/20 14:27:41;;;;;;;;;;;;;;;;;;5048819;28;4829;-58
2023/05/20 14:30:07;;;;;;;;;;;;;;;;;;5048424;28;4488;-58
2023/05/20 14:32:32;;;;;;;;;;;;;;;;;;5048168;28;5453;-58
2023/05/20 14:34:58;;;;;;;;;;;;;;;;;;5048947;28;1168;-58
2023/05/20 14:37:25;;;;;;;;;;;;;;;;;;5047997;28;4560;-58
2023/05/20 14:39:50;;;;;;;;;;;;;;;;;;5047617;28;4988;-58
2023/05/20 14:42:15;;;;;;;;;;;;;;;;;;5046680;28;4513;-58
2023/05/20 14:44:40;;;;;;;;;;;;;;;;;;5048568;28;4665;-58
2023/05/20 14:47:06;;;;;;;;;;;;;;;;;;5048268;28;4679;-58
2023/05/20 14:49:31;;;;;;;;;;;;;;;;;;5048629;28;1109;-58
2023/05/20 14:51:57;;;;;;;;;;;;;;;;;;5048116;28;4728;-58
2023/05/20 14:54:26;;;;;;;;;;;;;;;;;;5047719;28;5085;-58
2023/05/20 14:56:51;;;;;;;;;;;;;;;;;;5047919;28;4969;-58
2023/05/20 14:59:17;;;;;;;;;;;;;;;;;;5045483;28;4504;-58
2023/05/20 15:01:42;;;;;;;;;;;;;;;;;;5049014;28;1473;-58
2023/05/20 15:04:07;;;;;;;;;;;;;;;;;;5046479;28;4761;-58
2023/05/20 15:06:34;;;;;;;;;;;;;;;;;;5044620;28;4424;-58
2023/05/20 15:09:00;;;;;;;;;;;;;;;;;;5046582;28;4995;-58
2023/05/20 15:11:25;;;;;;;;;;;;;;;;;;5047292;28;4988;-59
2023/05/20 15:13:50;;;;;;;;;;;;;;;;;;5047908;28;2093;-58
2023/05/20 15:16:18;;;;;;;;;;;;;;;;;;5030097;28;4519;-58
2023/05/20 15:18:43;;;;;;;;;;;;;;;;;;5038145;28;4486;-58
2023/05/20 15:21:08;;;;;;;;;;;;;;;;;;5047129;28;4552;-58
2023/05/20 15:23:33;;;;;;;;;;;;;;;;;;5046229;28;4531;-58
2023/05/20 15:25:59;;;;;;;;;;;;;;;;;;5039527;28;1152;-58
2023/05/20 15:28:24;;;;;;;;;;;;;;;;;;5047233;28;5118;-58
2023/05/20 15:30:55;;;;;;;;;;;;;;;;;;5046790;28;4727;-58
2023/05/20 15:33:21;;;;;;;;;;;;;;;;;;5046359;28;5558;-59
2023/05/20 15:35:46;;;;;;;;;;;;;;;;;;5045737;28;5037;-58
2023/05/20 15:38:12;;;;;;;;;;;;;;;;;;5047048;28;4533;-58
2023/05/20 15:40:37;;;;;;;;;;;;;;;;;;5047533;28;1182;-58
2023/05/20 15:43:03;;;;;;;;;;;;;;;;;;5046872;28;4604;-58
2023/05/20 15:45:29;;;;;;;;;;;;;;;;;;5046835;28;4665;-59
2023/05/20 15:47:54;;;;;;;;;;;;;;;;;;5046752;28;4524;-58
2023/05/20 15:50:21;;;;;;;;;;;;;;;;;;5046812;28;4783;-59
2023/05/20 15:52:46;;;;;;;;;;;;;;;;;;5047733;28;1034;-59
2023/05/20 15:55:12;;;;;;;;;;;;;;;;;;5046146;28;5073;-58
2023/05/20 15:57:37;;;;;;;;;;;;;;;;;;5058712;28;4599;-58
2023/05/20 16:00:05;;;;;;;;;;;;;;;;;;5048332;28;5079;-58
2023/05/20 16:02:31;;;;;;;;;;;;;;;;;;5043688;28;5057;-59
2023/05/20 16:04:57;;;;;;;;;;;;;;;;;;5055777;28;3287;-58
2023/05/20 16:07:22;;;;;;;;;;;;;;;;;;5044979;28;4752;-59
2023/05/20 16:09:47;;;;;;;;;;;;;;;;;;5044572;28;4673;-59
2023/05/20 16:12:15;;;;;;;;;;;;;;;;;;5056282;28;4774;-59
2023/05/20 16:14:40;;;;;;;;;;;;;;;;;;5048772;28;4667;-58
2023/05/20 16:17:05;;;;;;;;;;;;;;;;;;5053580;28;4459;-58
2023/05/20 16:19:31;;;;;;;;;;;;;;;;;;5048641;28;1136;-59
2023/05/20 16:21:56;;;;;;;;;;;;;;;;;;5055583;28;5023;-58
2023/05/20 16:24:21;;;;;;;;;;;;;;;;;;5041894;28;5003;-59
2023/05/20 16:26:46;;;;;;;;;;;;;;;;;;5057891;28;4671;-58
2023/05/20 16:29:12;;;;;;;;;;;;;;;;;;5035882;28;4669;-59
2023/05/20 16:31:37;;;;;;;;;;;;;;;;;;5051060;28;5259;-58
2023/05/20 16:34:02;;;;;;;;;;;;;;;;;;5052850;28;4490;-55
2023/05/20 16:36:28;;;;;;;;;;;;;;;;;;5057423;28;4643;-57
2023/05/20 16:38:53;;;;;;;;;;;;;;;;;;5055645;28;4806;-54
2023/05/20 16:41:18;;;;;;;;;;;;;;;;;;5053861;28;4512;-58
2023/05/20 16:43:43;;;;;;;;;;;;;;;;;;5047836;28;4210;-57
2023/05/20 16:46:09;;;;;;;;;;;;;;;;;;5055520;28;4500;-57
2023/05/20 16:48:34;;;;;;;;;;;;;;;;;;5044870;28;4490;-57
2023/05/20 16:51:01;;;;;;;;;;;;;;;;;;5045924;28;5467;-54
2023/05/20 16:53:26;;;;;;;;;;;;;;;;;;5027282;28;4545;-59